New Augusta, Indiana
Current Conditions -  °F | °C
As of 9:53 PM on Friday 28 Nov 2014 (Local Time) from KEYE Reporting Station
Clear Clear  
Wind Chill: 27°   Ceiling: Unl
Heat Index: 33°   Visibility: 10mi
Dew Point: 22°   Wind: 7mph
Humidity: 64%   Direction: 150°SSE
Pressure: 30.04"   Gusts: NA
Location:  39.8902°N, 86.2967°W
Report Text: KEYE 290253Z AUTO 15006KT 10SM CLR 01/M06 A3004 RMK AO2 SLP180 T00061056 58009
Loading
Personal Weather Stations






























Interactive Weather Map New forecast layout! Learn more

10-Day Weather Forecast

Advertisements
Track Severe Weather on mobile